createdAt,value
2023-02-08T00:00:18.280Z,61.68
2023-02-08T00:03:24.603Z,61.46
2023-02-08T00:06:29.292Z,61.15
2023-02-08T00:09:35.820Z,61.26
2023-02-08T00:12:42.168Z,61.18
2023-02-08T00:15:47.501Z,61.08
2023-02-08T00:18:53.693Z,61.15
2023-02-08T00:21:59.916Z,61.18
2023-02-08T00:25:06.506Z,61.11
2023-02-08T00:28:16.355Z,61.28
2023-02-08T00:31:22.556Z,61.26
2023-02-08T00:34:28.857Z,61.06
2023-02-08T00:37:33.408Z,61.00
2023-02-08T00:40:39.843Z,61.11
2023-02-08T00:43:46.174Z,61.06
2023-02-08T00:46:52.454Z,61.21
2023-02-08T00:49:56.861Z,61.44
2023-02-08T00:53:03.041Z,61.38
2023-02-08T00:56:11.366Z,61.43
2023-02-08T00:59:17.709Z,61.67
2023-02-08T01:02:22.198Z,61.93
2023-02-08T01:05:28.362Z,62.10
2023-02-08T01:08:34.605Z,62.42
2023-02-08T01:11:39.308Z,62.24
2023-02-08T01:14:45.691Z,62.12
2023-02-08T01:17:56.646Z,61.85
2023-02-08T01:21:09.240Z,61.85
2023-02-08T01:24:15.452Z,62.37
2023-02-08T01:27:21.708Z,62.42
2023-02-08T01:30:26.320Z,62.13
2023-02-08T01:33:32.631Z,62.45
2023-02-08T01:36:37.478Z,62.76
2023-02-08T01:39:43.603Z,62.75
2023-02-08T01:42:49.842Z,62.46
2023-02-08T01:45:54.413Z,62.75
2023-02-08T01:49:04.022Z,62.79
2023-02-08T01:52:14.106Z,62.86
2023-02-08T01:55:26.328Z,62.83
2023-02-08T01:58:37.823Z,62.80
2023-02-08T02:01:46.581Z,62.66
2023-02-08T02:04:54.654Z,62.57
2023-02-08T02:08:01.841Z,62.66
2023-02-08T02:11:08.395Z,62.71
2023-02-08T02:14:15.942Z,62.68
2023-02-08T02:17:22.924Z,62.57
2023-02-08T02:20:40.088Z,62.66
2023-02-08T02:24:27.723Z,62.76
2023-02-08T02:27:48.900Z,62.61
2023-02-08T02:31:22.901Z,62.54
2023-02-08T02:34:38.441Z,62.74
2023-02-08T02:38:10.376Z,62.83
2023-02-08T02:41:38.724Z,62.72
2023-02-08T02:44:53.866Z,62.52
2023-02-08T02:48:07.262Z,62.55
2023-02-08T02:51:18.685Z,62.47
2023-02-08T02:54:30.953Z,62.66
2023-02-08T02:57:39.116Z,62.70
2023-02-08T03:00:46.226Z,62.63
2023-02-08T03:03:53.667Z,62.65
2023-02-08T03:07:10.397Z,62.56
2023-02-08T03:10:33.154Z,62.42
2023-02-08T03:13:52.513Z,62.40
2023-02-08T03:17:19.794Z,62.48
2023-02-08T03:20:31.380Z,62.61
2023-02-08T03:23:43.009Z,62.83
2023-02-08T03:26:57.529Z,63.25
2023-02-08T03:30:11.067Z,63.20
2023-02-08T03:33:21.426Z,63.27
2023-02-08T03:36:33.147Z,63.21
2023-02-08T03:39:41.543Z,63.11
2023-02-08T03:42:50.208Z,63.14
2023-02-08T03:46:03.532Z,63.13
2023-02-08T03:49:14.545Z,63.29
2023-02-08T03:52:20.868Z,63.38
2023-02-08T03:55:27.303Z,63.32
2023-02-08T03:58:39.825Z,63.43
2023-02-08T04:01:50.258Z,63.65
2023-02-08T04:04:58.298Z,63.85
2023-02-08T04:08:04.735Z,63.66
2023-02-08T04:11:11.340Z,63.81
2023-02-08T04:14:17.658Z,63.73
2023-02-08T04:17:22.724Z,63.63
2023-02-08T04:20:29.108Z,63.95
2023-02-08T04:23:35.337Z,63.84
2023-02-08T04:26:41.594Z,63.75
2023-02-08T04:29:46.135Z,63.54
2023-02-08T04:32:52.295Z,63.75
2023-02-08T04:35:58.459Z,63.95
2023-02-08T04:39:04.964Z,64.11
2023-02-08T04:42:11.397Z,63.93
2023-02-08T04:45:17.605Z,63.76
2023-02-08T04:48:24.118Z,63.82
2023-02-08T04:51:30.387Z,64.07
2023-02-08T04:54:35.200Z,64.05
2023-02-08T04:57:41.365Z,64.14
2023-02-08T05:00:46.081Z,63.89
2023-02-08T05:03:52.350Z,63.77
2023-02-08T05:06:56.959Z,63.63
2023-02-08T05:10:03.682Z,63.50
2023-02-08T05:13:10.021Z,63.34
2023-02-08T05:16:14.527Z,63.52
2023-02-08T05:19:20.823Z,63.56
2023-02-08T05:22:25.329Z,63.45
2023-02-08T05:25:31.594Z,63.43
2023-02-08T05:28:36.152Z,63.40
2023-02-08T05:31:42.648Z,63.54
2023-02-08T05:34:49.149Z,63.41
2023-02-08T05:37:55.383Z,63.36
2023-02-08T05:41:01.691Z,63.39
2023-02-08T05:44:06.384Z,63.41
2023-02-08T05:47:12.712Z,63.66
2023-02-08T05:50:17.507Z,64.04
2023-02-08T05:53:23.992Z,64.28
2023-02-08T05:56:30.559Z,64.05
2023-02-08T05:59:36.736Z,64.00
2023-02-08T06:02:43.062Z,63.99
2023-02-08T06:05:47.659Z,64.11
2023-02-08T06:08:53.886Z,64.28
2023-02-08T06:12:00.123Z,64.51
2023-02-08T06:15:04.959Z,64.68
2023-02-08T06:18:11.834Z,64.90
2023-02-08T06:21:18.106Z,64.64
2023-02-08T06:24:25.412Z,64.46
2023-02-08T06:27:31.721Z,64.19
2023-02-08T06:30:36.228Z,63.97
2023-02-08T06:33:42.452Z,63.79
2023-02-08T06:36:48.725Z,63.51
2023-02-08T06:39:53.302Z,63.49
2023-02-08T06:42:59.465Z,63.62
2023-02-08T06:46:08.653Z,63.61
2023-02-08T06:49:15.505Z,63.63
2023-02-08T06:52:22.569Z,63.69
2023-02-08T06:55:28.812Z,63.72
2023-02-08T06:58:33.288Z,64.09
2023-02-08T07:01:39.605Z,64.31
2023-02-08T07:04:44.092Z,64.21
2023-02-08T07:07:50.352Z,64.20
2023-02-08T07:10:54.939Z,63.87
2023-02-08T07:14:01.135Z,63.63
2023-02-08T07:17:07.401Z,63.41
2023-02-08T07:20:13.086Z,63.13
2023-02-08T07:23:19.373Z,63.12
2023-02-08T07:26:23.857Z,63.24
2023-02-08T07:29:32.345Z,63.48
2023-02-08T07:32:38.633Z,63.23
2023-02-08T07:35:43.290Z,63.21
2023-02-08T07:38:49.526Z,63.06
2023-02-08T07:41:56.134Z,63.23
2023-02-08T07:45:02.300Z,63.46
2023-02-08T07:48:08.639Z,63.08
2023-02-08T07:51:15.655Z,63.01
2023-02-08T07:54:21.913Z,62.90
2023-02-08T07:57:28.273Z,63.31
2023-02-08T08:00:32.922Z,63.49
2023-02-08T08:03:39.220Z,63.60
2023-02-08T08:06:43.779Z,63.53
2023-02-08T08:09:50.505Z,63.55
2023-02-08T08:12:56.788Z,63.49
2023-02-08T08:16:01.389Z,63.12
2023-02-08T08:19:08.013Z,63.32
2023-02-08T08:22:14.335Z,63.79
2023-02-08T08:25:18.946Z,63.42
2023-02-08T08:28:25.337Z,63.40
2023-02-08T08:31:32.159Z,63.37
2023-02-08T08:34:38.357Z,63.45
2023-02-08T08:37:44.540Z,63.24
2023-02-08T08:40:50.813Z,63.29
2023-02-08T08:43:55.540Z,63.09
2023-02-08T08:47:02.245Z,62.62
2023-02-08T08:50:09.589Z,61.43
2023-02-08T08:53:15.920Z,60.83
2023-02-08T08:56:20.464Z,61.10
2023-02-08T08:59:27.154Z,60.68
2023-02-08T09:02:33.397Z,60.59
2023-02-08T09:05:39.668Z,60.19
2023-02-08T09:08:46.008Z,60.67
2023-02-08T09:11:50.913Z,60.39
2023-02-08T09:14:57.167Z,60.51
2023-02-08T09:18:03.336Z,60.61
2023-02-08T09:21:12.120Z,60.73
2023-02-08T09:24:19.441Z,60.61
2023-02-08T09:27:25.602Z,61.24
2023-02-08T09:30:31.834Z,60.68
2023-02-08T09:33:38.273Z,60.59
2023-02-08T09:36:44.891Z,60.40
2023-02-08T09:39:51.175Z,60.79
2023-02-08T09:43:09.764Z,60.49
2023-02-08T09:46:21.539Z,60.34
2023-02-08T09:49:33.530Z,59.94
2023-02-08T09:52:43.837Z,59.35
2023-02-08T09:55:53.130Z,59.15
2023-02-08T09:59:00.598Z,60.01
2023-02-08T10:02:18.724Z,58.62
2023-02-08T10:05:28.569Z,56.84
2023-02-08T10:08:36.345Z,59.10
2023-02-08T10:11:58.342Z,58.96
2023-02-08T10:15:14.320Z,57.92
2023-02-08T10:18:34.591Z,56.88
2023-02-08T10:21:53.725Z,57.69
2023-02-08T10:25:17.579Z,58.25
2023-02-08T10:28:35.409Z,55.18
2023-02-08T10:32:02.652Z,54.41
2023-02-08T10:35:14.321Z,53.67
2023-02-08T10:38:44.024Z,53.43
2023-02-08T10:41:52.341Z,53.43
2023-02-08T10:45:19.056Z,54.73
2023-02-08T10:48:46.470Z,53.59
2023-02-08T10:51:54.264Z,54.59
2023-02-08T10:55:01.194Z,51.90
2023-02-08T10:58:08.323Z,54.60
2023-02-08T11:01:14.730Z,53.98
2023-02-08T11:04:21.704Z,52.37
2023-02-08T11:07:28.252Z,51.00
2023-02-08T11:10:36.767Z,50.74
2023-02-08T11:13:44.617Z,50.45
2023-02-08T11:16:55.805Z,50.04
2023-02-08T11:20:02.654Z,48.05
2023-02-08T11:23:23.896Z,50.24
2023-02-08T11:26:35.724Z,51.72
2023-02-08T11:29:41.881Z,52.89
2023-02-08T11:32:49.477Z,52.73
2023-02-08T11:36:07.671Z,53.05
2023-02-08T11:39:24.410Z,56.52
2023-02-08T11:42:36.124Z,55.64
2023-02-08T11:45:46.762Z,54.33
2023-02-08T11:48:55.378Z,54.66
2023-02-08T11:52:01.738Z,53.70
2023-02-08T11:55:24.931Z,53.99
2023-02-08T11:58:31.542Z,52.77
2023-02-08T12:01:39.779Z,53.91
2023-02-08T12:04:46.077Z,53.89
2023-02-08T12:08:07.806Z,54.32
2023-02-08T12:11:25.301Z,53.88
2023-02-08T12:14:46.997Z,59.00
2023-02-08T12:18:15.225Z,59.81
2023-02-08T12:21:26.820Z,54.59
2023-02-08T12:24:42.645Z,54.96
2023-02-08T12:27:56.285Z,59.20
2023-02-08T12:31:08.869Z,57.36
2023-02-08T12:34:21.903Z,54.35
2023-02-08T12:37:54.108Z,55.05
2023-02-08T12:41:08.544Z,53.83
2023-02-08T12:44:24.529Z,52.73
2023-02-08T12:47:49.269Z,52.93
2023-02-08T12:51:07.103Z,52.49
2023-02-08T12:54:17.149Z,52.49
2023-02-08T12:57:26.062Z,51.57
2023-02-08T13:00:38.454Z,51.83
2023-02-08T13:03:50.398Z,53.75
2023-02-08T13:07:03.475Z,51.83
2023-02-08T13:10:17.323Z,52.75
2023-02-08T13:13:27.009Z,57.51
2023-02-08T13:16:39.556Z,54.10
2023-02-08T13:20:00.214Z,52.86
2023-02-08T13:23:14.153Z,52.69
2023-02-08T13:26:24.857Z,51.96
2023-02-08T13:29:33.626Z,54.78
2023-02-08T13:32:44.310Z,55.60
2023-02-08T13:35:54.992Z,55.86
2023-02-08T13:39:03.505Z,56.91
2023-02-08T13:42:21.664Z,56.82
2023-02-08T13:45:34.329Z,57.11
2023-02-08T13:48:53.122Z,57.25
2023-02-08T13:51:59.884Z,57.22
2023-02-08T13:55:46.110Z,56.59
2023-02-08T13:59:05.831Z,56.02
2023-02-08T14:02:26.910Z,56.77
2023-02-08T14:05:48.543Z,55.42
2023-02-08T14:09:02.156Z,56.39
2023-02-08T14:12:14.512Z,57.28
2023-02-08T14:15:37.860Z,57.49
2023-02-08T14:18:55.497Z,57.69
2023-02-08T14:22:07.055Z,56.10
2023-02-08T14:40:48.391Z,56.08
2023-02-08T14:43:54.635Z,55.38
2023-02-08T14:47:00.981Z,55.31
2023-02-08T14:50:07.523Z,55.62
2023-02-08T14:53:26.370Z,55.51
2023-02-08T14:56:35.048Z,56.41
2023-02-08T14:59:42.856Z,56.83
2023-02-08T15:02:50.549Z,57.33
2023-02-08T15:06:34.602Z,57.32
2023-02-08T15:09:43.900Z,56.83
2023-02-08T15:12:53.692Z,57.01
2023-02-08T15:16:01.622Z,56.79
2023-02-08T15:19:09.464Z,57.23
2023-02-08T15:22:31.240Z,57.45
2023-02-08T15:25:38.452Z,57.48
2023-02-08T15:28:47.722Z,58.32
2023-02-08T15:31:55.079Z,58.03
2023-02-08T15:35:02.981Z,58.31
2023-02-08T15:38:16.946Z,58.77
2023-02-08T15:41:30.521Z,58.54
2023-02-08T15:44:37.390Z,59.09
2023-02-08T15:47:43.697Z,58.69
2023-02-08T15:50:48.791Z,59.12
2023-02-08T15:53:56.877Z,58.83
2023-02-08T15:57:06.938Z,60.37
2023-02-08T16:00:19.304Z,61.09
2023-02-08T16:03:28.083Z,65.49
2023-02-08T16:06:39.004Z,66.04
2023-02-08T16:09:49.692Z,64.31
2023-02-08T16:12:58.623Z,62.52
2023-02-08T16:16:20.045Z,61.55
2023-02-08T16:19:29.506Z,60.17
2023-02-08T16:22:35.786Z,58.33
2023-02-08T16:25:45.334Z,57.80
2023-02-08T16:28:58.260Z,58.13
2023-02-08T16:32:11.982Z,59.44
2023-02-08T16:35:25.882Z,60.84
2023-02-08T16:38:34.924Z,61.25
2023-02-08T16:42:16.062Z,61.94
2023-02-08T16:45:23.693Z,64.29
2023-02-08T16:48:36.181Z,65.51
2023-02-08T16:51:47.584Z,64.23
2023-02-08T16:54:53.977Z,62.86
2023-02-08T16:58:01.141Z,61.65
2023-02-08T17:01:07.978Z,60.94
2023-02-08T17:04:14.264Z,59.99
2023-02-08T17:07:19.499Z,58.19
2023-02-08T17:10:29.890Z,57.41
2023-02-08T17:13:36.526Z,58.55
2023-02-08T17:16:44.066Z,59.03
2023-02-08T17:19:50.357Z,59.77
2023-02-08T17:22:55.398Z,60.40
2023-02-08T17:26:01.738Z,60.17
2023-02-08T17:29:06.775Z,61.41
2023-02-08T17:32:13.042Z,61.10
2023-02-08T17:35:18.553Z,63.57
2023-02-08T17:38:24.780Z,66.97
2023-02-08T17:41:31.030Z,66.31
2023-02-08T17:44:35.721Z,65.53
2023-02-08T17:47:42.497Z,64.77
2023-02-08T17:50:51.168Z,62.65
2023-02-08T17:53:57.385Z,61.38
2023-02-08T17:57:01.888Z,60.31
2023-02-08T18:00:12.428Z,59.88
2023-02-08T18:03:18.726Z,59.91
2023-02-08T18:06:24.398Z,59.68
2023-02-08T18:09:30.731Z,58.21
2023-02-08T18:12:37.473Z,56.68
2023-02-08T18:15:44.066Z,57.76
2023-02-08T18:18:50.663Z,59.05
2023-02-08T18:21:56.962Z,59.66
2023-02-08T18:25:01.549Z,60.16
2023-02-08T18:28:08.472Z,59.85
2023-02-08T18:31:20.259Z,61.13
2023-02-08T18:34:26.827Z,61.84
2023-02-08T18:37:32.183Z,63.95
2023-02-08T18:40:38.680Z,66.84
2023-02-08T18:43:45.064Z,66.58
2023-02-08T18:46:51.363Z,65.86
2023-02-08T18:49:58.786Z,64.40
2023-02-08T18:53:05.264Z,63.86
2023-02-08T18:56:13.751Z,62.76
2023-02-08T18:59:19.993Z,62.09
2023-02-08T19:02:26.489Z,61.76
2023-02-08T19:05:33.120Z,61.94
2023-02-08T19:08:41.252Z,61.72
2023-02-08T19:11:47.689Z,62.16
2023-02-08T19:14:54.037Z,61.41
2023-02-08T19:18:00.322Z,60.38
2023-02-08T19:21:08.177Z,59.81
2023-02-08T19:24:15.737Z,58.86
2023-02-08T19:27:22.091Z,57.37
2023-02-08T19:30:28.653Z,58.03
2023-02-08T19:33:35.040Z,59.21
2023-02-08T19:36:46.493Z,60.26
2023-02-08T19:39:52.856Z,61.21
2023-02-08T19:42:59.230Z,63.38
2023-02-08T19:46:11.545Z,65.70
2023-02-08T19:49:18.225Z,65.14
2023-02-08T19:52:24.506Z,64.32
2023-02-08T19:55:29.042Z,64.04
2023-02-08T19:58:36.166Z,63.79
2023-02-08T20:01:42.580Z,63.05
2023-02-08T20:04:48.837Z,62.59
2023-02-08T20:07:53.378Z,61.90
2023-02-08T20:10:59.649Z,61.83
2023-02-08T20:14:04.659Z,61.81
2023-02-08T20:17:10.945Z,61.77
2023-02-08T20:20:17.201Z,61.00
2023-02-08T20:23:22.921Z,60.61
2023-02-08T20:26:28.480Z,60.43
2023-02-08T20:29:34.975Z,60.25
2023-02-08T20:32:41.382Z,60.02
2023-02-08T20:35:47.560Z,59.65
2023-02-08T20:38:53.002Z,59.68
2023-02-08T20:41:59.246Z,59.76
2023-02-08T20:45:06.013Z,59.81
2023-02-08T20:48:12.124Z,59.95
2023-02-08T20:51:20.658Z,60.03
2023-02-08T20:54:27.081Z,60.16
2023-02-08T20:57:33.333Z,59.90
2023-02-08T21:00:42.325Z,59.75
2023-02-08T21:03:49.860Z,59.82
2023-02-08T21:06:56.142Z,60.07
2023-02-08T21:10:04.085Z,60.29
2023-02-08T21:13:10.506Z,59.79
2023-02-08T21:16:17.437Z,60.11
2023-02-08T21:19:24.374Z,61.25
2023-02-08T21:22:30.592Z,61.20
2023-02-08T21:25:35.115Z,60.33
2023-02-08T21:28:41.841Z,60.83
2023-02-08T21:31:51.838Z,61.20
2023-02-08T21:34:58.188Z,61.12
2023-02-08T21:38:05.858Z,60.67
2023-02-08T21:41:14.547Z,60.59
2023-02-08T21:44:21.342Z,60.41
2023-02-08T21:47:27.722Z,59.56
2023-02-08T21:50:51.593Z,58.17
2023-02-08T21:54:15.094Z,57.71
2023-02-08T21:57:23.543Z,58.62
2023-02-08T22:00:29.824Z,62.21
2023-02-08T22:03:36.121Z,62.55
2023-02-08T22:06:48.801Z,61.54
2023-02-08T22:09:55.185Z,60.68
2023-02-08T22:13:01.771Z,60.57
2023-02-08T22:16:12.422Z,60.57
2023-02-08T22:19:18.796Z,59.71
2023-02-08T22:22:25.353Z,59.40
2023-02-08T22:25:31.801Z,58.89
2023-02-08T22:28:38.224Z,58.69
2023-02-08T22:31:44.656Z,58.47
2023-02-08T22:34:51.371Z,58.60
2023-02-08T22:37:57.954Z,59.07
2023-02-08T22:41:09.923Z,58.77
2023-02-08T22:44:16.745Z,58.41
2023-02-08T22:47:23.303Z,58.20
2023-02-08T22:50:29.618Z,57.65
2023-02-08T22:53:35.922Z,57.27
2023-02-08T22:56:42.471Z,57.45
2023-02-08T22:59:48.880Z,57.16
2023-02-08T23:02:55.152Z,56.56
2023-02-08T23:06:01.555Z,56.31
2023-02-08T23:09:09.061Z,56.28
2023-02-08T23:12:15.576Z,56.78
2023-02-08T23:15:22.317Z,57.14
2023-02-08T23:18:28.776Z,56.84
2023-02-08T23:21:35.282Z,56.31
2023-02-08T23:24:41.585Z,55.80
2023-02-08T23:27:48.746Z,55.75
2023-02-08T23:30:55.090Z,55.71
2023-02-08T23:34:02.176Z,55.78
2023-02-08T23:37:08.390Z,55.34
2023-02-08T23:40:15.714Z,55.22
2023-02-08T23:43:21.877Z,55.40
2023-02-08T23:46:27.421Z,55.34
2023-02-08T23:49:33.718Z,55.56
2023-02-08T23:52:40.371Z,55.70
2023-02-08T23:55:46.594Z,55.95
2023-02-08T23:58:54.601Z,56.22
